sensor_id;sensor_type;location;lat;lon;timestamp;P1;durP1;ratioP1;P2;durP2;ratioP2
23539;SDS011;11947;50.810;4.394;2023-03-14T00:00:20;8.57;;;1.73;;
23539;SDS011;11947;50.810;4.394;2023-03-14T00:02:50;12.13;;;2.00;;
23539;SDS011;11947;50.810;4.394;2023-03-14T00:05:19;10.13;;;1.40;;
23539;SDS011;11947;50.810;4.394;2023-03-14T00:07:45;7.35;;;1.60;;
23539;SDS011;11947;50.810;4.394;2023-03-14T00:10:11;15.15;;;1.90;;
23539;SDS011;11947;50.810;4.394;2023-03-14T00:12:38;12.73;;;1.83;;
23539;SDS011;11947;50.810;4.394;2023-03-14T00:15:05;9.80;;;1.83;;
23539;SDS011;11947;50.810;4.394;2023-03-14T00:17:32;10.13;;;1.60;;
23539;SDS011;11947;50.810;4.394;2023-03-14T00:19:58;13.38;;;2.50;;
23539;SDS011;11947;50.810;4.394;2023-03-14T00:22:29;10.60;;;1.77;;
23539;SDS011;11947;50.810;4.394;2023-03-14T00:24:56;16.77;;;1.98;;
23539;SDS011;11947;50.810;4.394;2023-03-14T00:27:21;11.75;;;1.85;;
23539;SDS011;11947;50.810;4.394;2023-03-14T00:29:47;10.43;;;1.83;;
23539;SDS011;11947;50.810;4.394;2023-03-14T00:32:12;19.13;;;1.88;;
23539;SDS011;11947;50.810;4.394;2023-03-14T00:34:38;12.65;;;1.80;;
23539;SDS011;11947;50.810;4.394;2023-03-14T00:37:04;11.90;;;1.58;;
23539;SDS011;11947;50.810;4.394;2023-03-14T00:39:30;14.95;;;2.10;;
23539;SDS011;11947;50.810;4.394;2023-03-14T00:41:56;13.32;;;1.58;;
23539;SDS011;11947;50.810;4.394;2023-03-14T00:44:21;15.25;;;2.10;;
23539;SDS011;11947;50.810;4.394;2023-03-14T00:46:47;16.45;;;2.20;;
23539;SDS011;11947;50.810;4.394;2023-03-14T00:49:13;13.40;;;2.17;;
23539;SDS011;11947;50.810;4.394;2023-03-14T00:51:38;15.68;;;2.22;;
23539;SDS011;11947;50.810;4.394;2023-03-14T00:54:04;14.65;;;2.08;;
23539;SDS011;11947;50.810;4.394;2023-03-14T00:56:30;20.23;;;2.28;;
23539;SDS011;11947;50.810;4.394;2023-03-14T00:58:56;16.90;;;2.40;;
23539;SDS011;11947;50.810;4.394;2023-03-14T01:01:22;17.85;;;2.50;;
23539;SDS011;11947;50.810;4.394;2023-03-14T01:03:50;14.07;;;2.05;;
23539;SDS011;11947;50.810;4.394;2023-03-14T01:06:18;16.52;;;2.38;;
23539;SDS011;11947;50.810;4.394;2023-03-14T01:08:45;15.95;;;2.35;;
23539;SDS011;11947;50.810;4.394;2023-03-14T01:11:13;17.05;;;2.42;;
23539;SDS011;11947;50.810;4.394;2023-03-14T01:13:40;15.35;;;2.20;;
23539;SDS011;11947;50.810;4.394;2023-03-14T01:16:07;12.52;;;2.28;;
23539;SDS011;11947;50.810;4.394;2023-03-14T01:18:35;15.88;;;2.00;;
23539;SDS011;11947;50.810;4.394;2023-03-14T01:21:09;15.02;;;1.88;;
23539;SDS011;11947;50.810;4.394;2023-03-14T01:23:46;20.63;;;2.25;;
23539;SDS011;11947;50.810;4.394;2023-03-14T01:26:13;14.98;;;1.92;;
23539;SDS011;11947;50.810;4.394;2023-03-14T01:28:40;12.88;;;1.90;;
23539;SDS011;11947;50.810;4.394;2023-03-14T01:31:07;14.15;;;2.03;;
23539;SDS011;11947;50.810;4.394;2023-03-14T01:33:34;13.40;;;2.20;;
23539;SDS011;11947;50.810;4.394;2023-03-14T01:36:00;13.75;;;1.85;;
23539;SDS011;11947;50.810;4.394;2023-03-14T01:38:30;18.27;;;2.25;;
23539;SDS011;11947;50.810;4.394;2023-03-14T01:40:57;11.27;;;1.83;;
23539;SDS011;11947;50.810;4.394;2023-03-14T01:43:23;12.52;;;1.67;;
23539;SDS011;11947;50.810;4.394;2023-03-14T01:54:49;12.00;;;2.17;;
23539;SDS011;11947;50.810;4.394;2023-03-14T01:56:55;11.15;;;1.67;;
23539;SDS011;11947;50.810;4.394;2023-03-14T01:59:23;13.27;;;1.60;;
23539;SDS011;11947;50.810;4.394;2023-03-14T02:01:50;8.80;;;1.17;;
23539;SDS011;11947;50.810;4.394;2023-03-14T02:04:17;12.43;;;1.40;;
23539;SDS011;11947;50.810;4.394;2023-03-14T02:06:46;11.30;;;1.52;;
23539;SDS011;11947;50.810;4.394;2023-03-14T02:09:19;10.65;;;1.58;;
23539;SDS011;11947;50.810;4.394;2023-03-14T02:11:45;7.03;;;0.93;;
23539;SDS011;11947;50.810;4.394;2023-03-14T02:14:25;12.45;;;1.15;;
23539;SDS011;11947;50.810;4.394;2023-03-14T02:17:00;5.70;;;1.10;;
23539;SDS011;11947;50.810;4.394;2023-03-14T02:19:37;9.13;;;1.08;;
23539;SDS011;11947;50.810;4.394;2023-03-14T02:22:30;7.05;;;0.68;;
23539;SDS011;11947;50.810;4.394;2023-03-14T02:27:45;11.65;;;1.38;;
23539;SDS011;11947;50.810;4.394;2023-03-14T02:30:16;10.73;;;1.10;;
23539;SDS011;11947;50.810;4.394;2023-03-14T02:32:47;8.80;;;1.00;;
23539;SDS011;11947;50.810;4.394;2023-03-14T02:35:24;7.20;;;1.00;;
23539;SDS011;11947;50.810;4.394;2023-03-14T02:40:40;11.40;;;1.33;;
23539;SDS011;11947;50.810;4.394;2023-03-14T02:43:05;13.05;;;1.67;;
23539;SDS011;11947;50.810;4.394;2023-03-14T02:45:37;10.98;;;2.17;;
23539;SDS011;11947;50.810;4.394;2023-03-14T02:48:11;12.10;;;2.42;;
23539;SDS011;11947;50.810;4.394;2023-03-14T02:50:50;17.05;;;2.90;;
23539;SDS011;11947;50.810;4.394;2023-03-14T02:53:20;17.38;;;3.22;;
23539;SDS011;11947;50.810;4.394;2023-03-14T02:55:49;14.80;;;3.30;;
23539;SDS011;11947;50.810;4.394;2023-03-14T02:58:15;15.10;;;3.10;;
23539;SDS011;11947;50.810;4.394;2023-03-14T03:00:42;21.15;;;3.50;;
23539;SDS011;11947;50.810;4.394;2023-03-14T03:03:07;17.23;;;3.58;;
23539;SDS011;11947;50.810;4.394;2023-03-14T03:05:33;21.92;;;3.75;;
23539;SDS011;11947;50.810;4.394;2023-03-14T03:07:59;18.98;;;3.83;;
23539;SDS011;11947;50.810;4.394;2023-03-14T03:10:25;17.70;;;3.22;;
23539;SDS011;11947;50.810;4.394;2023-03-14T03:12:52;17.02;;;3.85;;
23539;SDS011;11947;50.810;4.394;2023-03-14T03:15:17;21.50;;;3.88;;
23539;SDS011;11947;50.810;4.394;2023-03-14T03:17:43;14.27;;;3.17;;
23539;SDS011;11947;50.810;4.394;2023-03-14T03:20:09;20.70;;;3.70;;
23539;SDS011;11947;50.810;4.394;2023-03-14T03:22:35;25.42;;;4.38;;
23539;SDS011;11947;50.810;4.394;2023-03-14T03:25:02;23.65;;;4.43;;
23539;SDS011;11947;50.810;4.394;2023-03-14T03:27:32;25.77;;;4.65;;
23539;SDS011;11947;50.810;4.394;2023-03-14T03:29:59;25.20;;;4.35;;
23539;SDS011;11947;50.810;4.394;2023-03-14T03:32:24;20.25;;;4.28;;
23539;SDS011;11947;50.810;4.394;2023-03-14T03:34:50;19.08;;;3.97;;
23539;SDS011;11947;50.810;4.394;2023-03-14T03:37:16;17.90;;;3.70;;
23539;SDS011;11947;50.810;4.394;2023-03-14T03:39:42;18.65;;;4.25;;
23539;SDS011;11947;50.810;4.394;2023-03-14T03:42:08;18.27;;;4.50;;
23539;SDS011;11947;50.810;4.394;2023-03-14T03:44:33;24.45;;;4.57;;
23539;SDS011;11947;50.810;4.394;2023-03-14T03:46:59;21.42;;;3.83;;
23539;SDS011;11947;50.810;4.394;2023-03-14T03:49:28;16.17;;;3.55;;
23539;SDS011;11947;50.810;4.394;2023-03-14T03:51:57;20.88;;;3.58;;
23539;SDS011;11947;50.810;4.394;2023-03-14T03:54:23;14.32;;;3.47;;
23539;SDS011;11947;50.810;4.394;2023-03-14T03:56:49;17.08;;;3.92;;
23539;SDS011;11947;50.810;4.394;2023-03-14T03:59:14;14.75;;;4.30;;
23539;SDS011;11947;50.810;4.394;2023-03-14T04:01:40;15.35;;;4.25;;
23539;SDS011;11947;50.810;4.394;2023-03-14T04:04:06;16.60;;;4.88;;
23539;SDS011;11947;50.810;4.394;2023-03-14T04:06:32;20.88;;;5.80;;
23539;SDS011;11947;50.810;4.394;2023-03-14T04:08:57;20.35;;;5.70;;
23539;SDS011;11947;50.810;4.394;2023-03-14T04:11:23;21.52;;;5.97;;
23539;SDS011;11947;50.810;4.394;2023-03-14T04:13:49;22.23;;;6.47;;
23539;SDS011;11947;50.810;4.394;2023-03-14T04:16:16;24.02;;;6.80;;
23539;SDS011;11947;50.810;4.394;2023-03-14T04:18:44;17.52;;;6.63;;
23539;SDS011;11947;50.810;4.394;2023-03-14T04:21:09;15.65;;;6.45;;
23539;SDS011;11947;50.810;4.394;2023-03-14T04:23:35;18.77;;;6.57;;
23539;SDS011;11947;50.810;4.394;2023-03-14T04:26:01;21.48;;;7.05;;
23539;SDS011;11947;50.810;4.394;2023-03-14T04:28:27;14.63;;;6.72;;
23539;SDS011;11947;50.810;4.394;2023-03-14T04:30:53;16.75;;;7.07;;
23539;SDS011;11947;50.810;4.394;2023-03-14T04:33:19;16.02;;;6.68;;
23539;SDS011;11947;50.810;4.394;2023-03-14T04:35:45;19.35;;;7.40;;
23539;SDS011;11947;50.810;4.394;2023-03-14T04:38:12;20.95;;;7.38;;
23539;SDS011;11947;50.810;4.394;2023-03-14T04:40:38;16.60;;;7.05;;
23539;SDS011;11947;50.810;4.394;2023-03-14T04:43:05;19.90;;;6.93;;
23539;SDS011;11947;50.810;4.394;2023-03-14T04:45:31;16.85;;;6.20;;
23539;SDS011;11947;50.810;4.394;2023-03-14T04:47:56;19.80;;;7.07;;
23539;SDS011;11947;50.810;4.394;2023-03-14T04:50:22;14.77;;;6.72;;
23539;SDS011;11947;50.810;4.394;2023-03-14T04:52:48;17.75;;;6.95;;
23539;SDS011;11947;50.810;4.394;2023-03-14T04:55:13;20.13;;;6.70;;
23539;SDS011;11947;50.810;4.394;2023-03-14T04:57:40;15.15;;;6.00;;
23539;SDS011;11947;50.810;4.394;2023-03-14T05:00:06;16.95;;;6.60;;
23539;SDS011;11947;50.810;4.394;2023-03-14T05:02:32;18.65;;;6.47;;
23539;SDS011;11947;50.810;4.394;2023-03-14T05:04:59;16.15;;;6.25;;
23539;SDS011;11947;50.810;4.394;2023-03-14T05:07:24;16.60;;;6.22;;
23539;SDS011;11947;50.810;4.394;2023-03-14T05:09:50;16.80;;;6.22;;
23539;SDS011;11947;50.810;4.394;2023-03-14T05:12:16;14.18;;;5.60;;
23539;SDS011;11947;50.810;4.394;2023-03-14T05:14:41;13.15;;;5.10;;
23539;SDS011;11947;50.810;4.394;2023-03-14T05:17:07;9.00;;;4.72;;
23539;SDS011;11947;50.810;4.394;2023-03-14T05:19:32;14.48;;;4.50;;
23539;SDS011;11947;50.810;4.394;2023-03-14T05:21:58;11.85;;;3.67;;
23539;SDS011;11947;50.810;4.394;2023-03-14T05:24:23;8.60;;;3.65;;
23539;SDS011;11947;50.810;4.394;2023-03-14T05:26:49;7.57;;;3.10;;
23539;SDS011;11947;50.810;4.394;2023-03-14T05:29:15;6.45;;;3.28;;
23539;SDS011;11947;50.810;4.394;2023-03-14T05:31:40;8.75;;;3.30;;
23539;SDS011;11947;50.810;4.394;2023-03-14T05:34:06;8.65;;;3.17;;
23539;SDS011;11947;50.810;4.394;2023-03-14T05:36:31;10.20;;;3.15;;
23539;SDS011;11947;50.810;4.394;2023-03-14T05:38:57;9.75;;;3.10;;
23539;SDS011;11947;50.810;4.394;2023-03-14T05:41:22;11.75;;;4.05;;
23539;SDS011;11947;50.810;4.394;2023-03-14T05:43:48;8.02;;;3.70;;
23539;SDS011;11947;50.810;4.394;2023-03-14T05:46:14;9.20;;;3.53;;
23539;SDS011;11947;50.810;4.394;2023-03-14T05:48:39;9.95;;;4.07;;
23539;SDS011;11947;50.810;4.394;2023-03-14T05:51:05;8.38;;;3.75;;
23539;SDS011;11947;50.810;4.394;2023-03-14T05:53:31;7.97;;;3.80;;
23539;SDS011;11947;50.810;4.394;2023-03-14T05:55:56;9.05;;;4.30;;
23539;SDS011;11947;50.810;4.394;2023-03-14T05:58:22;12.05;;;4.43;;
23539;SDS011;11947;50.810;4.394;2023-03-14T06:00:49;9.60;;;3.95;;
23539;SDS011;11947;50.810;4.394;2023-03-14T06:03:15;11.45;;;4.60;;
23539;SDS011;11947;50.810;4.394;2023-03-14T06:05:41;9.90;;;4.40;;
23539;SDS011;11947;50.810;4.394;2023-03-14T06:08:07;17.25;;;4.70;;
23539;SDS011;11947;50.810;4.394;2023-03-14T06:10:32;12.73;;;5.03;;
23539;SDS011;11947;50.810;4.394;2023-03-14T06:13:00;14.52;;;5.10;;
23539;SDS011;11947;50.810;4.394;2023-03-14T06:15:25;10.13;;;4.63;;
23539;SDS011;11947;50.810;4.394;2023-03-14T06:17:53;11.75;;;5.20;;
23539;SDS011;11947;50.810;4.394;2023-03-14T06:20:19;9.88;;;5.05;;
23539;SDS011;11947;50.810;4.394;2023-03-14T06:22:45;12.13;;;4.55;;
23539;SDS011;11947;50.810;4.394;2023-03-14T06:25:10;11.05;;;4.80;;
23539;SDS011;11947;50.810;4.394;2023-03-14T06:27:36;9.77;;;4.85;;
23539;SDS011;11947;50.810;4.394;2023-03-14T06:30:01;11.60;;;5.32;;
23539;SDS011;11947;50.810;4.394;2023-03-14T06:32:27;17.92;;;5.13;;
23539;SDS011;11947;50.810;4.394;2023-03-14T06:34:53;11.32;;;4.65;;
23539;SDS011;11947;50.810;4.394;2023-03-14T06:37:19;15.63;;;4.32;;
23539;SDS011;11947;50.810;4.394;2023-03-14T06:39:44;12.18;;;5.00;;
23539;SDS011;11947;50.810;4.394;2023-03-14T06:42:10;13.20;;;4.25;;
23539;SDS011;11947;50.810;4.394;2023-03-14T06:44:35;11.50;;;4.45;;
23539;SDS011;11947;50.810;4.394;2023-03-14T06:47:01;8.27;;;4.20;;
23539;SDS011;11947;50.810;4.394;2023-03-14T06:49:27;10.90;;;4.00;;
23539;SDS011;11947;50.810;4.394;2023-03-14T06:51:52;9.40;;;3.38;;
23539;SDS011;11947;50.810;4.394;2023-03-14T06:54:18;6.05;;;2.75;;
23539;SDS011;11947;50.810;4.394;2023-03-14T06:56:44;5.70;;;3.20;;
23539;SDS011;11947;50.810;4.394;2023-03-14T06:59:09;9.88;;;3.17;;
23539;SDS011;11947;50.810;4.394;2023-03-14T07:01:35;8.68;;;4.07;;
23539;SDS011;11947;50.810;4.394;2023-03-14T07:04:01;10.75;;;5.10;;
23539;SDS011;11947;50.810;4.394;2023-03-14T07:06:27;12.23;;;4.80;;
23539;SDS011;11947;50.810;4.394;2023-03-14T07:08:54;6.35;;;3.20;;
23539;SDS011;11947;50.810;4.394;2023-03-14T07:11:20;9.70;;;2.90;;
23539;SDS011;11947;50.810;4.394;2023-03-14T07:13:47;5.20;;;2.80;;
23539;SDS011;11947;50.810;4.394;2023-03-14T07:16:12;7.32;;;2.53;;
23539;SDS011;11947;50.810;4.394;2023-03-14T07:18:38;4.72;;;2.20;;
23539;SDS011;11947;50.810;4.394;2023-03-14T07:21:07;7.80;;;2.72;;
23539;SDS011;11947;50.810;4.394;2023-03-14T07:23:34;6.43;;;2.75;;
23539;SDS011;11947;50.810;4.394;2023-03-14T07:25:59;7.38;;;3.30;;
23539;SDS011;11947;50.810;4.394;2023-03-14T07:28:25;10.52;;;3.60;;
23539;SDS011;11947;50.810;4.394;2023-03-14T07:30:52;8.27;;;3.10;;
23539;SDS011;11947;50.810;4.394;2023-03-14T07:33:18;9.90;;;3.50;;
23539;SDS011;11947;50.810;4.394;2023-03-14T07:35:43;10.43;;;3.42;;
23539;SDS011;11947;50.810;4.394;2023-03-14T07:38:09;9.23;;;3.45;;
23539;SDS011;11947;50.810;4.394;2023-03-14T07:40:35;6.50;;;3.25;;
23539;SDS011;11947;50.810;4.394;2023-03-14T07:43:00;11.63;;;4.00;;
23539;SDS011;11947;50.810;4.394;2023-03-14T07:45:26;11.85;;;3.88;;
23539;SDS011;11947;50.810;4.394;2023-03-14T07:47:51;8.93;;;3.50;;
23539;SDS011;11947;50.810;4.394;2023-03-14T07:50:17;7.15;;;3.20;;
23539;SDS011;11947;50.810;4.394;2023-03-14T07:52:44;7.07;;;3.95;;
23539;SDS011;11947;50.810;4.394;2023-03-14T07:55:09;11.40;;;3.92;;
23539;SDS011;11947;50.810;4.394;2023-03-14T07:57:35;9.40;;;4.30;;
23539;SDS011;11947;50.810;4.394;2023-03-14T08:00:00;11.23;;;4.57;;
23539;SDS011;11947;50.810;4.394;2023-03-14T08:02:26;12.00;;;5.10;;
23539;SDS011;11947;50.810;4.394;2023-03-14T08:04:52;16.13;;;5.72;;
23539;SDS011;11947;50.810;4.394;2023-03-14T08:07:17;12.75;;;5.90;;
23539;SDS011;11947;50.810;4.394;2023-03-14T08:09:43;16.13;;;5.72;;
23539;SDS011;11947;50.810;4.394;2023-03-14T08:12:08;14.63;;;5.90;;
23539;SDS011;11947;50.810;4.394;2023-03-14T08:14:34;15.05;;;6.18;;
23539;SDS011;11947;50.810;4.394;2023-03-14T08:16:59;18.58;;;6.20;;
23539;SDS011;11947;50.810;4.394;2023-03-14T08:19:25;14.98;;;5.95;;
23539;SDS011;11947;50.810;4.394;2023-03-14T08:21:51;18.30;;;6.07;;
23539;SDS011;11947;50.810;4.394;2023-03-14T08:24:16;13.93;;;5.18;;
23539;SDS011;11947;50.810;4.394;2023-03-14T08:26:42;14.80;;;5.75;;
23539;SDS011;11947;50.810;4.394;2023-03-14T08:29:08;14.10;;;5.32;;
23539;SDS011;11947;50.810;4.394;2023-03-14T08:31:36;12.57;;;4.97;;
23539;SDS011;11947;50.810;4.394;2023-03-14T08:34:02;14.75;;;4.93;;
23539;SDS011;11947;50.810;4.394;2023-03-14T08:36:28;12.95;;;4.93;;
23539;SDS011;11947;50.810;4.394;2023-03-14T08:38:54;17.95;;;5.03;;
23539;SDS011;11947;50.810;4.394;2023-03-14T08:41:20;11.40;;;3.97;;
23539;SDS011;11947;50.810;4.394;2023-03-14T08:43:45;11.18;;;3.72;;
23539;SDS011;11947;50.810;4.394;2023-03-14T08:46:11;20.25;;;4.35;;
23539;SDS011;11947;50.810;4.394;2023-03-14T08:48:37;12.13;;;3.65;;
23539;SDS011;11947;50.810;4.394;2023-03-14T08:51:09;18.00;;;4.68;;
23539;SDS011;11947;50.810;4.394;2023-03-14T08:53:37;15.93;;;4.50;;
23539;SDS011;11947;50.810;4.394;2023-03-14T08:56:03;19.42;;;4.82;;
23539;SDS011;11947;50.810;4.394;2023-03-14T08:58:31;21.77;;;4.97;;
23539;SDS011;11947;50.810;4.394;2023-03-14T09:00:57;21.80;;;4.88;;
23539;SDS011;11947;50.810;4.394;2023-03-14T09:03:23;20.80;;;5.47;;
23539;SDS011;11947;50.810;4.394;2023-03-14T09:05:49;17.83;;;4.93;;
23539;SDS011;11947;50.810;4.394;2023-03-14T09:08:15;17.63;;;4.38;;
23539;SDS011;11947;50.810;4.394;2023-03-14T09:10:41;15.27;;;4.38;;
23539;SDS011;11947;50.810;4.394;2023-03-14T09:13:07;15.05;;;3.90;;
23539;SDS011;11947;50.810;4.394;2023-03-14T09:15:32;17.40;;;4.85;;
23539;SDS011;11947;50.810;4.394;2023-03-14T09:17:58;13.63;;;4.50;;
23539;SDS011;11947;50.810;4.394;2023-03-14T09:20:24;16.38;;;4.97;;
23539;SDS011;11947;50.810;4.394;2023-03-14T09:22:50;17.65;;;5.00;;
23539;SDS011;11947;50.810;4.394;2023-03-14T09:25:15;23.05;;;4.88;;
23539;SDS011;11947;50.810;4.394;2023-03-14T09:27:41;19.45;;;4.78;;
23539;SDS011;11947;50.810;4.394;2023-03-14T09:30:07;21.25;;;4.50;;
23539;SDS011;11947;50.810;4.394;2023-03-14T09:32:33;18.15;;;4.43;;
23539;SDS011;11947;50.810;4.394;2023-03-14T09:34:59;19.90;;;4.65;;
23539;SDS011;11947;50.810;4.394;2023-03-14T09:37:25;17.10;;;4.32;;
23539;SDS011;11947;50.810;4.394;2023-03-14T09:39:50;20.63;;;4.70;;
23539;SDS011;11947;50.810;4.394;2023-03-14T09:42:17;19.83;;;5.45;;
23539;SDS011;11947;50.810;4.394;2023-03-14T09:44:53;16.92;;;4.15;;
23539;SDS011;11947;50.810;4.394;2023-03-14T09:47:25;21.02;;;4.45;;
23539;SDS011;11947;50.810;4.394;2023-03-14T09:49:51;19.20;;;4.30;;
23539;SDS011;11947;50.810;4.394;2023-03-14T09:52:30;17.80;;;3.50;;
23539;SDS011;11947;50.810;4.394;2023-03-14T09:55:02;20.63;;;4.38;;
23539;SDS011;11947;50.810;4.394;2023-03-14T09:57:37;15.30;;;3.67;;
23539;SDS011;11947;50.810;4.394;2023-03-14T10:00:12;13.90;;;4.00;;
23539;SDS011;11947;50.810;4.394;2023-03-14T10:02:50;13.10;;;3.83;;
23539;SDS011;11947;50.810;4.394;2023-03-14T10:05:40;9.85;;;3.95;;
23539;SDS011;11947;50.810;4.394;2023-03-14T10:08:09;16.48;;;3.90;;
23539;SDS011;11947;50.810;4.394;2023-03-14T10:10:35;18.05;;;4.22;;
23539;SDS011;11947;50.810;4.394;2023-03-14T10:13:10;14.00;;;3.67;;
23539;SDS011;11947;50.810;4.394;2023-03-14T10:15:37;16.98;;;4.18;;
23539;SDS011;11947;50.810;4.394;2023-03-14T10:18:03;12.15;;;4.10;;
23539;SDS011;11947;50.810;4.394;2023-03-14T10:20:38;15.90;;;3.83;;
23539;SDS011;11947;50.810;4.394;2023-03-14T10:25:41;18.33;;;5.07;;
23539;SDS011;11947;50.810;4.394;2023-03-14T10:28:24;10.60;;;3.10;;
23539;SDS011;11947;50.810;4.394;2023-03-14T10:30:55;12.23;;;2.83;;
23539;SDS011;11947;50.810;4.394;2023-03-14T10:36:30;13.50;;;3.33;;
23539;SDS011;11947;50.810;4.394;2023-03-14T10:39:15;17.20;;;3.10;;
23539;SDS011;11947;50.810;4.394;2023-03-14T10:42:05;15.18;;;3.20;;
23539;SDS011;11947;50.810;4.394;2023-03-14T10:44:38;11.60;;;2.58;;
23539;SDS011;11947;50.810;4.394;2023-03-14T10:47:04;16.60;;;3.28;;
23539;SDS011;11947;50.810;4.394;2023-03-14T10:52:01;14.93;;;2.85;;
23539;SDS011;11947;50.810;4.394;2023-03-14T10:54:55;15.13;;;3.20;;
23539;SDS011;11947;50.810;4.394;2023-03-14T10:57:23;14.55;;;2.63;;
23539;SDS011;11947;50.810;4.394;2023-03-14T10:59:49;9.40;;;2.45;;
23539;SDS011;11947;50.810;4.394;2023-03-14T11:08:07;17.80;;;3.15;;
23539;SDS011;11947;50.810;4.394;2023-03-14T11:10:54;12.52;;;3.00;;
23539;SDS011;11947;50.810;4.394;2023-03-14T11:19:00;14.13;;;3.38;;
23539;SDS011;11947;50.810;4.394;2023-03-14T11:25:09;14.65;;;2.60;;
23539;SDS011;11947;50.810;4.394;2023-03-14T11:27:55;9.63;;;2.72;;
23539;SDS011;11947;50.810;4.394;2023-03-14T11:33:24;7.28;;;2.10;;
23539;SDS011;11947;50.810;4.394;2023-03-14T11:36:04;10.05;;;1.70;;
23539;SDS011;11947;50.810;4.394;2023-03-14T11:41:17;6.20;;;1.30;;
23539;SDS011;11947;50.810;4.394;2023-03-14T11:44:00;8.63;;;1.30;;
23539;SDS011;11947;50.810;4.394;2023-03-14T11:46:46;7.43;;;1.23;;
23539;SDS011;11947;50.810;4.394;2023-03-14T11:49:47;5.85;;;0.80;;
23539;SDS011;11947;50.810;4.394;2023-03-14T11:52:32;4.65;;;1.10;;
23539;SDS011;11947;50.810;4.394;2023-03-14T11:57:36;2.00;;;0.98;;
23539;SDS011;11947;50.810;4.394;2023-03-14T12:02:58;5.07;;;1.80;;
23539;SDS011;11947;50.810;4.394;2023-03-14T12:05:39;3.58;;;0.80;;
23539;SDS011;11947;50.810;4.394;2023-03-14T12:11:30;2.63;;;1.10;;
23539;SDS011;11947;50.810;4.394;2023-03-14T12:14:15;8.55;;;1.13;;
23539;SDS011;11947;50.810;4.394;2023-03-14T12:16:45;4.03;;;1.20;;
23539;SDS011;11947;50.810;4.394;2023-03-14T12:21:51;4.43;;;1.70;;
23539;SDS011;11947;50.810;4.394;2023-03-14T12:24:20;7.97;;;2.30;;
23539;SDS011;11947;50.810;4.394;2023-03-14T12:26:57;4.40;;;2.25;;
23539;SDS011;11947;50.810;4.394;2023-03-14T12:29:24;5.90;;;2.50;;
23539;SDS011;11947;50.810;4.394;2023-03-14T12:34:26;6.95;;;3.20;;
23539;SDS011;11947;50.810;4.394;2023-03-14T12:42:36;69.88;;;35.45;;
23539;SDS011;11947;50.810;4.394;2023-03-14T12:45:02;14.68;;;8.05;;
23539;SDS011;11947;50.810;4.394;2023-03-14T12:50:34;7.97;;;4.00;;
23539;SDS011;11947;50.810;4.394;2023-03-14T12:56:08;12.48;;;5.45;;
23539;SDS011;11947;50.810;4.394;2023-03-14T12:58:48;11.88;;;4.50;;
23539;SDS011;11947;50.810;4.394;2023-03-14T13:01:45;8.55;;;3.80;;
23539;SDS011;11947;50.810;4.394;2023-03-14T13:04:19;15.40;;;7.00;;
23539;SDS011;11947;50.810;4.394;2023-03-14T13:06:57;21.88;;;10.80;;
23539;SDS011;11947;50.810;4.394;2023-03-14T13:12:03;23.75;;;9.52;;
23539;SDS011;11947;50.810;4.394;2023-03-14T13:14:40;20.38;;;10.63;;
23539;SDS011;11947;50.810;4.394;2023-03-14T13:17:10;28.80;;;13.48;;
23539;SDS011;11947;50.810;4.394;2023-03-14T13:19:38;15.68;;;7.93;;
23539;SDS011;11947;50.810;4.394;2023-03-14T13:22:06;9.60;;;4.82;;
23539;SDS011;11947;50.810;4.394;2023-03-14T13:24:40;13.18;;;6.65;;
23539;SDS011;11947;50.810;4.394;2023-03-14T13:27:08;14.05;;;5.00;;
23539;SDS011;11947;50.810;4.394;2023-03-14T13:29:43;13.95;;;4.50;;
23539;SDS011;11947;50.810;4.394;2023-03-14T13:32:22;18.52;;;4.78;;
23539;SDS011;11947;50.810;4.394;2023-03-14T13:34:55;18.58;;;3.72;;
23539;SDS011;11947;50.810;4.394;2023-03-14T13:37:22;11.32;;;4.35;;
23539;SDS011;11947;50.810;4.394;2023-03-14T13:39:50;18.33;;;4.35;;
23539;SDS011;11947;50.810;4.394;2023-03-14T13:42:29;20.58;;;4.57;;
23539;SDS011;11947;50.810;4.394;2023-03-14T13:44:55;29.45;;;4.47;;
23539;SDS011;11947;50.810;4.394;2023-03-14T13:47:22;28.20;;;5.53;;
23539;SDS011;11947;50.810;4.394;2023-03-14T13:49:49;28.45;;;4.40;;
23539;SDS011;11947;50.810;4.394;2023-03-14T13:52:24;20.42;;;3.50;;
23539;SDS011;11947;50.810;4.394;2023-03-14T13:55:03;19.77;;;3.90;;
23539;SDS011;11947;50.810;4.394;2023-03-14T14:00:22;33.83;;;4.25;;
23539;SDS011;11947;50.810;4.394;2023-03-14T14:02:52;35.67;;;5.25;;
23539;SDS011;11947;50.810;4.394;2023-03-14T14:05:23;28.00;;;3.70;;
23539;SDS011;11947;50.810;4.394;2023-03-14T14:07:52;27.02;;;3.63;;
23539;SDS011;11947;50.810;4.394;2023-03-14T14:10:18;27.38;;;4.20;;
23539;SDS011;11947;50.810;4.394;2023-03-14T14:12:46;36.88;;;4.60;;
23539;SDS011;11947;50.810;4.394;2023-03-14T14:15:18;39.95;;;4.00;;
23539;SDS011;11947;50.810;4.394;2023-03-14T14:17:54;22.92;;;3.72;;
23539;SDS011;11947;50.810;4.394;2023-03-14T14:20:23;27.98;;;3.75;;
23539;SDS011;11947;50.810;4.394;2023-03-14T14:22:59;29.60;;;4.50;;
23539;SDS011;11947;50.810;4.394;2023-03-14T14:25:27;24.90;;;4.25;;
23539;SDS011;11947;50.810;4.394;2023-03-14T14:27:54;29.10;;;4.10;;
23539;SDS011;11947;50.810;4.394;2023-03-14T14:32:49;25.75;;;3.10;;
23539;SDS011;11947;50.810;4.394;2023-03-14T14:35:32;22.75;;;2.47;;
23539;SDS011;11947;50.810;4.394;2023-03-14T14:38:00;25.33;;;3.20;;
23539;SDS011;11947;50.810;4.394;2023-03-14T14:40:28;20.90;;;2.65;;
23539;SDS011;11947;50.810;4.394;2023-03-14T14:42:55;19.08;;;2.40;;
23539;SDS011;11947;50.810;4.394;2023-03-14T14:45:28;33.05;;;2.80;;
23539;SDS011;11947;50.810;4.394;2023-03-14T14:47:54;20.65;;;2.50;;
23539;SDS011;11947;50.810;4.394;2023-03-14T14:50:39;18.52;;;2.25;;
23539;SDS011;11947;50.810;4.394;2023-03-14T14:56:06;6.55;;;1.65;;
23539;SDS011;11947;50.810;4.394;2023-03-14T14:58:40;10.00;;;2.60;;
23539;SDS011;11947;50.810;4.394;2023-03-14T15:01:13;13.57;;;1.83;;
23539;SDS011;11947;50.810;4.394;2023-03-14T15:03:45;11.07;;;1.67;;
23539;SDS011;11947;50.810;4.394;2023-03-14T15:06:14;8.30;;;1.10;;
23539;SDS011;11947;50.810;4.394;2023-03-14T15:08:42;9.00;;;0.98;;
23539;SDS011;11947;50.810;4.394;2023-03-14T15:11:22;7.82;;;0.80;;
23539;SDS011;11947;50.810;4.394;2023-03-14T15:13:49;5.80;;;0.85;;
23539;SDS011;11947;50.810;4.394;2023-03-14T15:16:17;3.20;;;0.80;;
23539;SDS011;11947;50.810;4.394;2023-03-14T15:18:49;4.55;;;0.70;;
23539;SDS011;11947;50.810;4.394;2023-03-14T15:21:20;7.90;;;1.00;;
23539;SDS011;11947;50.810;4.394;2023-03-14T15:23:46;7.55;;;1.13;;
23539;SDS011;11947;50.810;4.394;2023-03-14T15:26:12;5.88;;;1.08;;
23539;SDS011;11947;50.810;4.394;2023-03-14T15:28:40;5.97;;;0.90;;
23539;SDS011;11947;50.810;4.394;2023-03-14T15:31:08;4.90;;;0.60;;
23539;SDS011;11947;50.810;4.394;2023-03-14T15:33:36;7.20;;;1.17;;
23539;SDS011;11947;50.810;4.394;2023-03-14T15:36:02;8.18;;;0.90;;
23539;SDS011;11947;50.810;4.394;2023-03-14T15:38:28;10.90;;;1.25;;
23539;SDS011;11947;50.810;4.394;2023-03-14T15:40:54;11.80;;;1.90;;
23539;SDS011;11947;50.810;4.394;2023-03-14T15:43:20;12.52;;;1.42;;
23539;SDS011;11947;50.810;4.394;2023-03-14T15:45:45;4.78;;;1.00;;
23539;SDS011;11947;50.810;4.394;2023-03-14T15:48:12;10.73;;;1.10;;
23539;SDS011;11947;50.810;4.394;2023-03-14T15:50:44;5.28;;;1.38;;
23539;SDS011;11947;50.810;4.394;2023-03-14T15:53:10;7.60;;;1.25;;
23539;SDS011;11947;50.810;4.394;2023-03-14T15:55:36;7.85;;;2.15;;
23539;SDS011;11947;50.810;4.394;2023-03-14T15:58:01;6.93;;;2.60;;
23539;SDS011;11947;50.810;4.394;2023-03-14T16:00:27;8.05;;;2.35;;
23539;SDS011;11947;50.810;4.394;2023-03-14T16:02:53;9.35;;;2.25;;
23539;SDS011;11947;50.810;4.394;2023-03-14T16:05:19;8.15;;;2.33;;